sensor_id;sensor_type;location;lat;lon;timestamp;pressure;altitude;pressure_sealevel;temperature;humidity
61384;BME280;63511;49.346;8.798;2023-03-01T00:00:09;101182.16;;;2.81;59.96
61384;BME280;63511;49.346;8.798;2023-03-01T00:02:35;101183.66;;;2.65;60.42
61384;BME280;63511;49.346;8.798;2023-03-01T00:05:02;101175.91;;;2.84;59.07
61384;BME280;63511;49.346;8.798;2023-03-01T00:07:31;101184.28;;;2.85;59.34
61384;BME280;63511;49.346;8.798;2023-03-01T00:09:57;101187.31;;;2.82;59.13
61384;BME280;63511;49.346;8.798;2023-03-01T00:12:24;101180.69;;;2.90;59.14
61384;BME280;63511;49.346;8.798;2023-03-01T00:14:50;101180.25;;;2.71;59.71
61384;BME280;63511;49.346;8.798;2023-03-01T00:17:17;101175.91;;;2.84;59.43
61384;BME280;63511;49.346;8.798;2023-03-01T00:19:43;101164.53;;;2.79;59.66
61384;BME280;63511;49.346;8.798;2023-03-01T00:22:10;101182.72;;;2.78;59.87
61384;BME280;63511;49.346;8.798;2023-03-01T00:24:38;101183.97;;;2.75;59.81
61384;BME280;63511;49.346;8.798;2023-03-01T00:27:04;101187.50;;;2.84;60.44
61384;BME280;63511;49.346;8.798;2023-03-01T00:29:31;101183.03;;;2.81;59.56
61384;BME280;63511;49.346;8.798;2023-03-01T00:31:57;101185.81;;;2.91;59.03
61384;BME280;63511;49.346;8.798;2023-03-01T00:34:24;101183.13;;;2.97;58.97
61384;BME280;63511;49.346;8.798;2023-03-01T00:36:50;101189.50;;;3.02;59.26
61384;BME280;63511;49.346;8.798;2023-03-01T00:39:17;101196.38;;;2.89;59.79
61384;BME280;63511;49.346;8.798;2023-03-01T00:41:45;101189.00;;;2.97;59.26
61384;BME280;63511;49.346;8.798;2023-03-01T00:44:12;101197.41;;;2.91;60.12
61384;BME280;63511;49.346;8.798;2023-03-01T00:46:39;101188.59;;;2.79;60.73
61384;BME280;63511;49.346;8.798;2023-03-01T00:49:05;101197.47;;;2.84;59.58
61384;BME280;63511;49.346;8.798;2023-03-01T00:51:32;101192.22;;;2.67;59.87
61384;BME280;63511;49.346;8.798;2023-03-01T00:54:01;101192.63;;;2.85;59.38
61384;BME280;63511;49.346;8.798;2023-03-01T00:56:28;101197.59;;;2.92;60.06
61384;BME280;63511;49.346;8.798;2023-03-01T00:58:56;101197.59;;;2.55;60.72
61384;BME280;63511;49.346;8.798;2023-03-01T01:01:24;101208.59;;;2.65;59.90
61384;BME280;63511;49.346;8.798;2023-03-01T01:03:54;101206.78;;;2.71;59.59
61384;BME280;63511;49.346;8.798;2023-03-01T01:06:22;101204.66;;;2.74;60.27
61384;BME280;63511;49.346;8.798;2023-03-01T01:08:50;101202.31;;;2.75;60.15
61384;BME280;63511;49.346;8.798;2023-03-01T01:11:17;101194.69;;;2.74;59.96
61384;BME280;63511;49.346;8.798;2023-03-01T01:13:44;101187.63;;;2.85;59.21
61384;BME280;63511;49.346;8.798;2023-03-01T01:16:16;101191.44;;;2.75;60.24
61384;BME280;63511;49.346;8.798;2023-03-01T01:18:44;101176.53;;;2.68;60.60
61384;BME280;63511;49.346;8.798;2023-03-01T01:21:12;101178.63;;;2.79;59.70
61384;BME280;63511;49.346;8.798;2023-03-01T01:23:40;101159.34;;;2.85;59.90
61384;BME280;63511;49.346;8.798;2023-03-01T01:26:08;101159.41;;;2.71;60.31
61384;BME280;63511;49.346;8.798;2023-03-01T01:28:35;101155.66;;;2.74;60.34
61384;BME280;63511;49.346;8.798;2023-03-01T01:31:03;101153.28;;;2.83;60.00
61384;BME280;63511;49.346;8.798;2023-03-01T01:33:31;101153.59;;;2.63;60.55
61384;BME280;63511;49.346;8.798;2023-03-01T01:35:58;101146.13;;;2.86;60.07
61384;BME280;63511;49.346;8.798;2023-03-01T01:38:24;101143.63;;;2.86;60.53
61384;BME280;63511;49.346;8.798;2023-03-01T01:40:51;101149.41;;;2.78;60.62
61384;BME280;63511;49.346;8.798;2023-03-01T01:43:21;101136.63;;;2.97;59.91
61384;BME280;63511;49.346;8.798;2023-03-01T01:45:49;101134.94;;;2.82;61.03
61384;BME280;63511;49.346;8.798;2023-03-01T01:48:19;101138.81;;;2.87;60.58
61384;BME280;63511;49.346;8.798;2023-03-01T01:50:53;101139.75;;;2.81;61.31
61384;BME280;63511;49.346;8.798;2023-03-01T01:53:22;101141.81;;;2.69;61.34
61384;BME280;63511;49.346;8.798;2023-03-01T01:55:51;101135.44;;;2.57;61.88
61384;BME280;63511;49.346;8.798;2023-03-01T01:58:22;101117.09;;;2.64;62.06
61384;BME280;63511;49.346;8.798;2023-03-01T02:00:50;101117.38;;;2.74;61.95
61384;BME280;63511;49.346;8.798;2023-03-01T02:03:18;101116.47;;;2.73;60.18
61384;BME280;63511;49.346;8.798;2023-03-01T02:05:52;101103.25;;;2.51;61.24
61384;BME280;63511;49.346;8.798;2023-03-01T02:08:23;101104.75;;;2.35;61.82
61384;BME280;63511;49.346;8.798;2023-03-01T02:10:51;101101.25;;;2.26;61.64
61384;BME280;63511;49.346;8.798;2023-03-01T02:13:19;101096.09;;;2.25;62.87
61384;BME280;63511;49.346;8.798;2023-03-01T02:15:45;101098.50;;;2.39;62.49
61384;BME280;63511;49.346;8.798;2023-03-01T02:18:14;101094.63;;;2.34;62.36
61384;BME280;63511;49.346;8.798;2023-03-01T02:20:50;101095.19;;;2.24;62.55
61384;BME280;63511;49.346;8.798;2023-03-01T02:23:22;101096.53;;;2.06;63.64
61384;BME280;63511;49.346;8.798;2023-03-01T02:25:56;101102.94;;;2.04;63.59
61384;BME280;63511;49.346;8.798;2023-03-01T02:28:33;101091.75;;;2.01;64.03
61384;BME280;63511;49.346;8.798;2023-03-01T02:31:01;101089.00;;;2.21;62.08
61384;BME280;63511;49.346;8.798;2023-03-01T02:33:47;101091.75;;;2.01;62.74
61384;BME280;63511;49.346;8.798;2023-03-01T02:36:17;101093.56;;;1.95;63.49
61384;BME280;63511;49.346;8.798;2023-03-01T02:38:46;101085.19;;;1.94;62.89
61384;BME280;63511;49.346;8.798;2023-03-01T02:41:15;101082.91;;;1.82;64.91
61384;BME280;63511;49.346;8.798;2023-03-01T02:43:44;101073.28;;;1.92;63.42
61384;BME280;63511;49.346;8.798;2023-03-01T02:46:14;101075.41;;;1.96;62.95
61384;BME280;63511;49.346;8.798;2023-03-01T02:48:44;101077.94;;;1.82;63.05
61384;BME280;63511;49.346;8.798;2023-03-01T02:54:08;101060.59;;;1.46;64.96
61384;BME280;63511;49.346;8.798;2023-03-01T02:56:38;101073.56;;;1.65;63.88
61384;BME280;63511;49.346;8.798;2023-03-01T02:59:07;101076.94;;;1.65;63.51
61384;BME280;63511;49.346;8.798;2023-03-01T03:01:35;101073.38;;;1.56;64.24
61384;BME280;63511;49.346;8.798;2023-03-01T03:04:04;101072.81;;;1.66;63.69
61384;BME280;63511;49.346;8.798;2023-03-01T03:06:31;101070.19;;;1.64;63.88
61384;BME280;63511;49.346;8.798;2023-03-01T03:08:58;101067.13;;;1.67;63.74
61384;BME280;63511;49.346;8.798;2023-03-01T03:11:24;101064.44;;;1.73;63.37
61384;BME280;63511;49.346;8.798;2023-03-01T03:13:51;101055.94;;;1.63;63.21
61384;BME280;63511;49.346;8.798;2023-03-01T03:16:20;101056.19;;;1.44;64.20
61384;BME280;63511;49.346;8.798;2023-03-01T03:18:46;101057.59;;;1.49;64.27
61384;BME280;63511;49.346;8.798;2023-03-01T03:21:14;101056.38;;;1.38;64.42
61384;BME280;63511;49.346;8.798;2023-03-01T03:23:41;101052.78;;;1.50;64.11
61384;BME280;63511;49.346;8.798;2023-03-01T03:26:08;101056.38;;;1.38;64.11
61384;BME280;63511;49.346;8.798;2023-03-01T03:28:38;101052.44;;;1.47;63.99
61384;BME280;63511;49.346;8.798;2023-03-01T03:31:06;101050.91;;;1.05;65.59
61384;BME280;63511;49.346;8.798;2023-03-01T03:33:35;101048.59;;;1.00;65.52
61384;BME280;63511;49.346;8.798;2023-03-01T03:36:02;101047.72;;;1.06;65.74
61384;BME280;63511;49.346;8.798;2023-03-01T03:38:28;101045.22;;;1.13;65.32
61384;BME280;63511;49.346;8.798;2023-03-01T03:41:00;101047.13;;;1.30;64.03
61384;BME280;63511;49.346;8.798;2023-03-01T03:43:28;101044.31;;;1.27;65.30
61384;BME280;63511;49.346;8.798;2023-03-01T03:45:56;101049.47;;;1.28;64.98
61384;BME280;63511;49.346;8.798;2023-03-01T03:48:23;101045.72;;;1.32;64.61
61384;BME280;63511;49.346;8.798;2023-03-01T03:50:53;101051.59;;;1.25;65.07
61384;BME280;63511;49.346;8.798;2023-03-01T03:53:20;101040.25;;;0.99;65.58
61384;BME280;63511;49.346;8.798;2023-03-01T03:55:48;101039.91;;;0.96;65.63
61384;BME280;63511;49.346;8.798;2023-03-01T03:58:18;101031.53;;;1.24;64.35
61384;BME280;63511;49.346;8.798;2023-03-01T04:00:47;101031.16;;;1.28;64.69
61384;BME280;63511;49.346;8.798;2023-03-01T04:03:16;101030.47;;;1.29;64.40
61384;BME280;63511;49.346;8.798;2023-03-01T04:05:44;101021.06;;;1.12;64.97
61384;BME280;63511;49.346;8.798;2023-03-01T04:08:12;101022.84;;;1.06;65.57
61384;BME280;63511;49.346;8.798;2023-03-01T04:10:41;101016.94;;;1.20;65.09
61384;BME280;63511;49.346;8.798;2023-03-01T04:13:12;101018.41;;;1.18;65.67
61384;BME280;63511;49.346;8.798;2023-03-01T04:15:38;101017.69;;;1.05;65.75
61384;BME280;63511;49.346;8.798;2023-03-01T04:18:06;101022.66;;;1.12;65.68
61384;BME280;63511;49.346;8.798;2023-03-01T04:20:34;101015.72;;;1.16;65.66
61384;BME280;63511;49.346;8.798;2023-03-01T04:23:03;101021.03;;;1.19;65.87
61384;BME280;63511;49.346;8.798;2023-03-01T04:25:37;101019.63;;;1.14;66.26
61384;BME280;63511;49.346;8.798;2023-03-01T04:28:04;101020.19;;;0.98;66.93
61384;BME280;63511;49.346;8.798;2023-03-01T04:30:31;101018.94;;;1.01;67.22
61384;BME280;63511;49.346;8.798;2023-03-01T04:33:02;101024.28;;;0.97;67.34
61384;BME280;63511;49.346;8.798;2023-03-01T04:35:28;101031.38;;;0.94;67.26
61384;BME280;63511;49.346;8.798;2023-03-01T04:37:55;101016.81;;;0.97;67.27
61384;BME280;63511;49.346;8.798;2023-03-01T04:40:22;101021.94;;;0.99;67.28
61384;BME280;63511;49.346;8.798;2023-03-01T04:42:49;101028.53;;;1.05;67.20
61384;BME280;63511;49.346;8.798;2023-03-01T04:45:16;101031.91;;;0.84;67.72
61384;BME280;63511;49.346;8.798;2023-03-01T04:47:45;101031.91;;;0.56;68.23
61384;BME280;63511;49.346;8.798;2023-03-01T04:50:13;101024.44;;;0.35;68.76
61384;BME280;63511;49.346;8.798;2023-03-01T04:52:40;101026.78;;;0.97;67.15
61384;BME280;63511;49.346;8.798;2023-03-01T04:55:08;101027.13;;;1.07;66.43
61384;BME280;63511;49.346;8.798;2023-03-01T04:57:35;101026.38;;;1.22;66.09
61384;BME280;63511;49.346;8.798;2023-03-01T05:00:03;101037.75;;;1.27;65.97
61384;BME280;63511;49.346;8.798;2023-03-01T05:02:46;101029.56;;;1.28;66.08
61384;BME280;63511;49.346;8.798;2023-03-01T05:05:13;101026.53;;;1.31;65.58
61384;BME280;63511;49.346;8.798;2023-03-01T05:07:40;101025.31;;;1.27;65.72
61384;BME280;63511;49.346;8.798;2023-03-01T05:10:07;101026.56;;;1.10;66.28
61384;BME280;63511;49.346;8.798;2023-03-01T05:12:34;101024.63;;;0.86;67.25
61384;BME280;63511;49.346;8.798;2023-03-01T05:15:04;101022.50;;;0.96;66.38
61384;BME280;63511;49.346;8.798;2023-03-01T05:17:32;101023.03;;;1.01;65.71
61384;BME280;63511;49.346;8.798;2023-03-01T05:19:59;101026.78;;;0.97;66.06
61384;BME280;63511;49.346;8.798;2023-03-01T05:22:26;101024.97;;;0.89;66.12
61384;BME280;63511;49.346;8.798;2023-03-01T05:24:53;101034.75;;;1.02;66.15
61384;BME280;63511;49.346;8.798;2023-03-01T05:27:20;101025.53;;;0.87;66.10
61384;BME280;63511;49.346;8.798;2023-03-01T05:29:47;101028.00;;;0.94;66.10
61384;BME280;63511;49.346;8.798;2023-03-01T05:32:15;101021.44;;;0.80;66.34
61384;BME280;63511;49.346;8.798;2023-03-01T05:34:42;101031.56;;;0.67;67.33
61384;BME280;63511;49.346;8.798;2023-03-01T05:37:09;101029.44;;;0.84;66.80
61384;BME280;63511;49.346;8.798;2023-03-01T05:39:36;101036.38;;;0.87;66.65
61384;BME280;63511;49.346;8.798;2023-03-01T05:42:02;101032.28;;;0.66;67.34
61384;BME280;63511;49.346;8.798;2023-03-01T05:44:29;101028.00;;;0.79;67.27
61384;BME280;63511;49.346;8.798;2023-03-01T05:46:56;101026.22;;;0.78;68.19
61384;BME280;63511;49.346;8.798;2023-03-01T05:49:24;101028.72;;;0.85;67.17
61384;BME280;63511;49.346;8.798;2023-03-01T05:51:52;101029.81;;;0.88;67.22
61384;BME280;63511;49.346;8.798;2023-03-01T05:54:19;101025.72;;;0.67;66.97
61384;BME280;63511;49.346;8.798;2023-03-01T05:56:46;101021.28;;;0.93;66.63
61384;BME280;63511;49.346;8.798;2023-03-01T05:59:13;101022.69;;;0.91;66.48
61384;BME280;63511;49.346;8.798;2023-03-01T06:01:42;101011.16;;;0.98;66.45
61384;BME280;63511;49.346;8.798;2023-03-01T06:04:08;101019.31;;;0.97;66.92
61384;BME280;63511;49.346;8.798;2023-03-01T06:06:37;101021.25;;;1.14;65.84
61384;BME280;63511;49.346;8.798;2023-03-01T06:09:05;101014.63;;;1.28;65.18
61384;BME280;63511;49.346;8.798;2023-03-01T06:11:33;101021.78;;;1.04;66.38
61384;BME280;63511;49.346;8.798;2023-03-01T06:14:00;101022.63;;;1.33;65.30
61384;BME280;63511;49.346;8.798;2023-03-01T06:16:26;101025.47;;;1.29;65.06
61384;BME280;63511;49.346;8.798;2023-03-01T06:18:53;101018.34;;;1.25;64.84
61384;BME280;63511;49.346;8.798;2023-03-01T06:21:19;101011.13;;;1.12;65.25
61384;BME280;63511;49.346;8.798;2023-03-01T06:23:47;101020.50;;;1.29;65.07
61384;BME280;63511;49.346;8.798;2023-03-01T06:26:14;101020.69;;;1.16;65.34
61384;BME280;63511;49.346;8.798;2023-03-01T06:28:40;101015.13;;;1.40;64.68
61384;BME280;63511;49.346;8.798;2023-03-01T06:31:07;101022.09;;;1.21;65.17
61384;BME280;63511;49.346;8.798;2023-03-01T06:33:33;101027.78;;;1.35;65.09
61384;BME280;63511;49.346;8.798;2023-03-01T06:36:01;101008.78;;;1.28;65.21
61384;BME280;63511;49.346;8.798;2023-03-01T06:38:27;101018.16;;;1.45;64.58
61384;BME280;63511;49.346;8.798;2023-03-01T06:40:55;101010.38;;;1.35;64.95
61384;BME280;63511;49.346;8.798;2023-03-01T06:43:23;101013.72;;;1.35;65.82
61384;BME280;63511;49.346;8.798;2023-03-01T06:45:50;101014.84;;;1.23;67.24
61384;BME280;63511;49.346;8.798;2023-03-01T06:48:17;101017.97;;;1.36;66.23
61384;BME280;63511;49.346;8.798;2023-03-01T06:50:43;101008.22;;;1.38;65.15
61384;BME280;63511;49.346;8.798;2023-03-01T06:53:10;101010.47;;;1.50;65.38
61384;BME280;63511;49.346;8.798;2023-03-01T06:55:36;101010.63;;;1.59;65.49
61384;BME280;63511;49.346;8.798;2023-03-01T06:58:04;101009.41;;;1.55;65.78
61384;BME280;63511;49.346;8.798;2023-03-01T07:00:31;101000.19;;;1.47;65.58
61384;BME280;63511;49.346;8.798;2023-03-01T07:02:59;100994.81;;;1.58;65.07
61384;BME280;63511;49.346;8.798;2023-03-01T07:05:27;101004.44;;;1.55;65.51
61384;BME280;63511;49.346;8.798;2023-03-01T07:07:53;100998.53;;;1.62;65.39
61384;BME280;63511;49.346;8.798;2023-03-01T07:10:20;101000.09;;;1.68;65.45
61384;BME280;63511;49.346;8.798;2023-03-01T07:12:47;101007.69;;;1.84;65.60
61384;BME280;63511;49.346;8.798;2023-03-01T07:15:15;101005.47;;;1.64;66.30
61384;BME280;63511;49.346;8.798;2023-03-01T07:17:41;101003.81;;;1.72;65.25
61384;BME280;63511;49.346;8.798;2023-03-01T07:20:10;101000.63;;;1.66;65.80
61384;BME280;63511;49.346;8.798;2023-03-01T07:22:39;100998.44;;;1.83;66.49
61384;BME280;63511;49.346;8.798;2023-03-01T07:25:06;100984.69;;;1.94;66.54
61384;BME280;63511;49.346;8.798;2023-03-01T07:27:33;100983.47;;;1.90;66.16
61384;BME280;63511;49.346;8.798;2023-03-01T07:29:59;100985.44;;;2.23;65.76
61384;BME280;63511;49.346;8.798;2023-03-01T07:32:27;100981.22;;;2.07;65.42
61384;BME280;63511;49.346;8.798;2023-03-01T07:34:54;100979.56;;;2.22;66.05
61384;BME280;63511;49.346;8.798;2023-03-01T07:37:20;100975.22;;;2.28;63.88
61384;BME280;63511;49.346;8.798;2023-03-01T07:39:47;100977.69;;;2.58;62.86
61384;BME280;63511;49.346;8.798;2023-03-01T07:42:13;100966.56;;;2.86;62.74
61384;BME280;63511;49.346;8.798;2023-03-01T07:44:40;100967.13;;;2.83;61.30
61384;BME280;63511;49.346;8.798;2023-03-01T07:47:06;100960.41;;;3.14;59.99
61384;BME280;63511;49.346;8.798;2023-03-01T07:49:34;100959.13;;;3.33;60.00
61384;BME280;63511;49.346;8.798;2023-03-01T07:52:01;100958.41;;;3.34;59.11
61384;BME280;63511;49.346;8.798;2023-03-01T07:54:27;100952.25;;;3.55;59.21
61384;BME280;63511;49.346;8.798;2023-03-01T07:56:54;100945.34;;;3.52;60.13
61384;BME280;63511;49.346;8.798;2023-03-01T07:59:20;100956.31;;;3.46;58.75
61384;BME280;63511;49.346;8.798;2023-03-01T08:01:48;100952.28;;;3.79;58.21
61384;BME280;63511;49.346;8.798;2023-03-01T08:04:15;100940.94;;;3.74;57.61
61384;BME280;63511;49.346;8.798;2023-03-01T08:06:43;100952.22;;;3.86;58.05
61384;BME280;63511;49.346;8.798;2023-03-01T08:09:10;100954.25;;;4.06;57.23
61384;BME280;63511;49.346;8.798;2023-03-01T08:11:36;100957.00;;;4.00;57.70
61384;BME280;63511;49.346;8.798;2023-03-01T08:14:03;100956.44;;;4.03;57.30
61384;BME280;63511;49.346;8.798;2023-03-01T08:16:29;100952.53;;;4.13;57.54
61384;BME280;63511;49.346;8.798;2023-03-01T08:18:57;100953.69;;;4.08;56.70
61384;BME280;63511;49.346;8.798;2023-03-01T08:21:26;100956.69;;;3.97;56.12
61384;BME280;63511;49.346;8.798;2023-03-01T08:23:54;100947.16;;;4.26;56.39
61384;BME280;63511;49.346;8.798;2023-03-01T08:26:21;100939.13;;;4.37;55.27
61384;BME280;63511;49.346;8.798;2023-03-01T08:28:48;100943.63;;;4.24;56.60
61384;BME280;63511;49.346;8.798;2023-03-01T08:31:17;100935.63;;;4.44;54.76
61384;BME280;63511;49.346;8.798;2023-03-01T08:33:44;100921.34;;;4.43;55.02
61384;BME280;63511;49.346;8.798;2023-03-01T08:36:16;100927.78;;;4.65;54.83
61384;BME280;63511;49.346;8.798;2023-03-01T08:38:42;100927.50;;;4.38;54.86
61384;BME280;63511;49.346;8.798;2023-03-01T08:41:10;100923.78;;;4.58;55.90
61384;BME280;63511;49.346;8.798;2023-03-01T08:43:37;100929.78;;;4.19;54.82
61384;BME280;63511;49.346;8.798;2023-03-01T08:46:04;100922.63;;;4.31;54.90
61384;BME280;63511;49.346;8.798;2023-03-01T08:48:30;100921.81;;;4.47;54.51
61384;BME280;63511;49.346;8.798;2023-03-01T08:50:57;100911.78;;;4.80;53.89
61384;BME280;63511;49.346;8.798;2023-03-01T08:53:32;100919.84;;;4.78;54.71
61384;BME280;63511;49.346;8.798;2023-03-01T08:55:59;100920.03;;;4.88;54.42
61384;BME280;63511;49.346;8.798;2023-03-01T08:58:27;100919.22;;;4.63;53.79
61384;BME280;63511;49.346;8.798;2023-03-01T09:00:54;100904.38;;;4.73;54.05
61384;BME280;63511;49.346;8.798;2023-03-01T09:03:21;100902.84;;;5.17;54.28
61384;BME280;63511;49.346;8.798;2023-03-01T09:05:48;100910.97;;;5.31;54.48
61384;BME280;63511;49.346;8.798;2023-03-01T09:08:15;100904.47;;;5.16;53.19
61384;BME280;63511;49.346;8.798;2023-03-01T09:10:42;100901.38;;;5.19;54.37
61384;BME280;63511;49.346;8.798;2023-03-01T09:13:08;100909.63;;;5.35;54.01
61384;BME280;63511;49.346;8.798;2023-03-01T09:15:38;100904.16;;;5.39;52.72
61384;BME280;63511;49.346;8.798;2023-03-01T09:18:05;100902.84;;;5.51;53.15
61384;BME280;63511;49.346;8.798;2023-03-01T09:20:32;100899.63;;;5.52;53.40
61384;BME280;63511;49.346;8.798;2023-03-01T09:22:58;100899.75;;;5.62;53.06
61384;BME280;63511;49.346;8.798;2023-03-01T09:25:25;100896.22;;;5.60;52.06
61384;BME280;63511;49.346;8.798;2023-03-01T09:27:52;100900.78;;;5.30;52.94
61384;BME280;63511;49.346;8.798;2023-03-01T09:30:19;100894.31;;;5.32;52.95
61384;BME280;63511;49.346;8.798;2023-03-01T09:32:47;100896.81;;;5.32;52.49
61384;BME280;63511;49.346;8.798;2023-03-01T09:35:14;100900.63;;;5.20;53.03
61384;BME280;63511;49.346;8.798;2023-03-01T09:37:40;100901.81;;;5.40;52.57
61384;BME280;63511;49.346;8.798;2023-03-01T09:40:12;100885.44;;;5.95;52.95
61384;BME280;63511;49.346;8.798;2023-03-01T09:42:47;100897.25;;;5.62;51.96
61384;BME280;63511;49.346;8.798;2023-03-01T09:45:23;100887.66;;;5.49;51.67
61384;BME280;63511;49.346;8.798;2023-03-01T09:47:53;100893.72;;;5.69;51.77
61384;BME280;63511;49.346;8.798;2023-03-01T09:50:21;100897.38;;;5.72;51.92
61384;BME280;63511;49.346;8.798;2023-03-01T09:52:50;100881.53;;;6.16;52.08
61384;BME280;63511;49.346;8.798;2023-03-01T09:55:26;100876.38;;;6.51;51.99
61384;BME280;63511;49.346;8.798;2023-03-01T09:58:00;100868.50;;;6.29;50.76
61384;BME280;63511;49.346;8.798;2023-03-01T10:00:37;100873.56;;;6.20;51.49
61384;BME280;63511;49.346;8.798;2023-03-01T10:03:13;100869.03;;;6.44;52.09
61384;BME280;63511;49.346;8.798;2023-03-01T10:05:52;100866.38;;;6.69;51.17
61384;BME280;63511;49.346;8.798;2023-03-01T10:08:29;100875.84;;;6.36;49.98
61384;BME280;63511;49.346;8.798;2023-03-01T10:11:01;100871.69;;;6.45;50.72
61384;BME280;63511;49.346;8.798;2023-03-01T10:13:33;100862.19;;;6.24;50.48
61384;BME280;63511;49.346;8.798;2023-03-01T10:16:05;100860.44;;;6.50;50.61
61384;BME280;63511;49.346;8.798;2023-03-01T10:21:28;100853.56;;;6.66;50.30
61384;BME280;63511;49.346;8.798;2023-03-01T10:24:04;100843.41;;;7.02;48.77
61384;BME280;63511;49.346;8.798;2023-03-01T10:26:43;100835.72;;;7.38;48.44
61384;BME280;63511;49.346;8.798;2023-03-01T10:29:13;100831.38;;;7.27;48.92
61384;BME280;63511;49.346;8.798;2023-03-01T10:31:42;100830.41;;;7.25;48.60
61384;BME280;63511;49.346;8.798;2023-03-01T10:34:12;100825.94;;;7.41;48.53
61384;BME280;63511;49.346;8.798;2023-03-01T10:36:40;100814.88;;;7.68;46.16
61384;BME280;63511;49.346;8.798;2023-03-01T10:39:14;100806.44;;;8.06;47.93
61384;BME280;63511;49.346;8.798;2023-03-01T10:47:00;100805.25;;;7.83;47.66
61384;BME280;63511;49.346;8.798;2023-03-01T10:49:26;100801.63;;;8.38;47.56
61384;BME280;63511;49.346;8.798;2023-03-01T10:51:53;100793.06;;;8.57;45.21
61384;BME280;63511;49.346;8.798;2023-03-01T10:54:22;100788.91;;;8.47;46.33
61384;BME280;63511;49.346;8.798;2023-03-01T10:56:50;100782.38;;;8.69;45.15
61384;BME280;63511;49.346;8.798;2023-03-01T10:59:25;100785.34;;;8.25;46.41
61384;BME280;63511;49.346;8.798;2023-03-01T11:02:08;100773.63;;;8.25;46.71
61384;BME280;63511;49.346;8.798;2023-03-01T11:07:28;100766.91;;;8.55;45.61
61384;BME280;63511;49.346;8.798;2023-03-01T11:09:55;100762.09;;;8.68;47.12
61384;BME280;63511;49.346;8.798;2023-03-01T11:12:21;100748.63;;;9.51;45.69
61384;BME280;63511;49.346;8.798;2023-03-01T11:14:48;100753.41;;;9.48;45.55
61384;BME280;63511;49.346;8.798;2023-03-01T11:17:19;100757.63;;;9.06;44.62
61384;BME280;63511;49.346;8.798;2023-03-01T11:20:00;100745.16;;;8.97;44.63
61384;BME280;63511;49.346;8.798;2023-03-01T11:22:31;100750.28;;;8.57;44.59
61384;BME280;63511;49.346;8.798;2023-03-01T11:25:00;100743.13;;;9.03;44.45
61384;BME280;63511;49.346;8.798;2023-03-01T11:27:30;100748.44;;;9.06;44.76
61384;BME280;63511;49.346;8.798;2023-03-01T11:30:00;100746.53;;;9.04;44.55
61384;BME280;63511;49.346;8.798;2023-03-01T11:32:32;100739.81;;;9.14;44.33
61384;BME280;63511;49.346;8.798;2023-03-01T11:35:04;100721.63;;;9.28;44.51
61384;BME280;63511;49.346;8.798;2023-03-01T11:37:36;100720.53;;;9.47;44.87
61384;BME280;63511;49.346;8.798;2023-03-01T11:40:13;100715.19;;;9.54;44.20
61384;BME280;63511;49.346;8.798;2023-03-01T11:42:56;100715.56;;;9.36;44.21
61384;BME280;63511;49.346;8.798;2023-03-01T11:45:30;100711.22;;;9.67;44.64
61384;BME280;63511;49.346;8.798;2023-03-01T11:48:07;100704.72;;;9.37;43.85
61384;BME280;63511;49.346;8.798;2023-03-01T11:50:41;100704.09;;;9.95;44.74
61384;BME280;63511;49.346;8.798;2023-03-01T11:53:27;100690.75;;;9.74;43.75
61384;BME280;63511;49.346;8.798;2023-03-01T11:56:03;100694.13;;;9.97;42.43
61384;BME280;63511;49.346;8.798;2023-03-01T11:58:44;100689.28;;;9.88;42.79
61384;BME280;63511;49.346;8.798;2023-03-01T12:01:16;100673.47;;;9.57;42.80
61384;BME280;63511;49.346;8.798;2023-03-01T12:04:08;100670.28;;;9.38;42.22
61384;BME280;63511;49.346;8.798;2023-03-01T12:06:56;100663.91;;;9.53;42.86
61384;BME280;63511;49.346;8.798;2023-03-01T12:09:42;100661.00;;;9.92;43.28
61384;BME280;63511;49.346;8.798;2023-03-01T12:12:28;100653.84;;;9.87;42.87
61384;BME280;63511;49.346;8.798;2023-03-01T12:15:17;100651.72;;;10.14;44.08
61384;BME280;63511;49.346;8.798;2023-03-01T12:17:58;100646.94;;;9.96;42.74
61384;BME280;63511;49.346;8.798;2023-03-01T12:20:32;100648.31;;;9.80;42.89
61384;BME280;63511;49.346;8.798;2023-03-01T12:23:20;100633.41;;;9.72;43.26
61384;BME280;63511;49.346;8.798;2023-03-01T12:25:58;100630.59;;;9.79;42.70
61384;BME280;63511;49.346;8.798;2023-03-01T12:28:41;100627.34;;;9.70;42.31
61384;BME280;63511;49.346;8.798;2023-03-01T12:31:30;100629.00;;;10.14;44.42
61384;BME280;63511;49.346;8.798;2023-03-01T12:34:03;100625.13;;;9.96;42.86
61384;BME280;63511;49.346;8.798;2023-03-01T12:37:09;100613.78;;;9.79;43.34
61384;BME280;63511;49.346;8.798;2023-03-01T12:39:47;100608.84;;;9.81;42.44
61384;BME280;63511;49.346;8.798;2023-03-01T12:42:23;100614.06;;;9.94;42.90
61384;BME280;63511;49.346;8.798;2023-03-01T12:45:07;100608.69;;;9.56;42.26
61384;BME280;63511;49.346;8.798;2023-03-01T12:47:56;100596.72;;;9.99;42.97
61384;BME280;63511;49.346;8.798;2023-03-01T12:50:32;100603.31;;;10.08;41.45
61384;BME280;63511;49.346;8.798;2023-03-01T12:53:31;100594.50;;;10.25;41.65
61384;BME280;63511;49.346;8.798;2023-03-01T12:56:01;100593.44;;;10.11;41.99
61384;BME280;63511;49.346;8.798;2023-03-01T12:58:31;100592.50;;;10.33;42.36
61384;BME280;63511;49.346;8.798;2023-03-01T13:01:05;100582.69;;;10.02;42.33
61384;BME280;63511;49.346;8.798;2023-03-01T13:03:55;100579.78;;;10.43;41.27
61384;BME280;63511;49.346;8.798;2023-03-01T13:06:27;100563.22;;;10.35;41.25
61384;BME280;63511;49.346;8.798;2023-03-01T13:09:06;100574.19;;;10.35;41.66
61384;BME280;63511;49.346;8.798;2023-03-01T13:11:41;100582.84;;;10.39;41.57
61384;BME280;63511;49.346;8.798;2023-03-01T13:17:39;100559.16;;;10.25;41.52
61384;BME280;63511;49.346;8.798;2023-03-01T13:20:13;100558.03;;;10.21;40.61
61384;BME280;63511;49.346;8.798;2023-03-01T13:22:39;100561.78;;;10.38;42.27
61384;BME280;63511;49.346;8.798;2023-03-01T13:25:15;100560.69;;;10.46;41.19
61384;BME280;63511;49.346;8.798;2023-03-01T13:27:44;100552.94;;;10.80;40.26
61384;BME280;63511;49.346;8.798;2023-03-01T13:30:41;100537.72;;;10.43;41.25